Andover, OH

7:21 PM EST on February 07, 2016 (GMT -0500)
linesville | | Change Station
CLOSE
Current Station
Personal Weather Station
Location: Linesville, PA
Elevation: 1129 ft
Nearby Weather Stations

Elev 1129 ft 41.58 °N, 80.49 °W | Updated 27 seconds ago

Mostly Cloudy
Mostly Cloudy
40.6 °F
Feels Like 41 °F
N
0.0
Wind Variable Wind from West

Today
High -- | Low -- °F
--% Chance of Precip.
Yesterday
High -- | Low -- °F
Precip. -- in
Pressure 29.89 in
Visibility 10.0 miles
Clouds Clear
Windchill 41 °F
Dew Point 30 °F
Humidity 66%
Rainfall 0.00 in
Snow Depth Not available.
7:28 AM 5:45 PM
Waning Crescent, 1% visible
METAR KHZY 072353Z AUTO 19004KT 10SM CLR 07/M03 A2987 RMK AO2 SLP121 T00671028 10094 20061 55008 TSNO
Pressure 29.89 in
Visibility 10.0 miles
Clouds Clear
Windchill 41 °F
Dew Point 30 °F
Humidity 66%
Rainfall 0.00 in
Snow Depth Not available.
7:28 AM 5:45 PM
Waning Crescent, 1% visible
METAR KHZY 072353Z AUTO 19004KT 10SM CLR 07/M03 A2987 RMK AO2 SLP121 T00671028 10094 20061 55008 TSNO

10-Day Weather Forecast

Almanac

Astronomy

Feb. 07, 2016 Rise Set
Actual Time
Civil Twilight
Nautical Twilight
Astronomical Twilight
Moon
Length of Visible Light
Length of Day
Tomorrow will be .
, % of the Moon is Illuminated

Today's Extremes

State Highs State Lows

Community

WunderPhotos

Upload Photos

1,891,335 photos uploaded!

WunderBlog® & News

Nearby

Air Quality

  Air Quality AQ Index Pollutant
Not available.

Snow Depth

Station Depth Elevation

Earthquake Activity

City Distance Mag. Time & Date
Minimum magnitude displayed is 2.5.

Coastal Water Temperatures

Place Temperature

Stations

Nearby Weather Stations

Station Location Temp. Windchill Dew Point Humidity Wind Precip. Elev Updated Type
                   

Watches & Warnings

There are currently no watches in effect.